Time;durP1;ratioP1;P1;durP2;ratioP2;P2;SDS_P1;SDS_P2;PMS_P1;PMS_P2;Temp;Humidity;BMP_temperature;BMP_pressure;BME280_temperature;BME280_humidity;BME280_pressure;Samples;Min_cycle;Max_cycle;Signal;HPM_P1;HPM_P2
2022/11/17 00:00:40;;;;;;;7.57;4.27;;;;;;;;;;5054683;28;20196;-42
2022/11/17 00:03:13;;;;;;;5.37;3.67;;;;;;;;;;5054666;28;20549;-41
2022/11/17 00:05:40;;;;;;;3.93;3.20;;;;;;;;;;5054766;28;20224;-41
2022/11/17 00:08:08;;;;;;;3.77;2.93;;;;;;;;;;5054645;28;20710;-41
2022/11/17 00:10:34;;;;;;;5.83;3.57;;;;;;;;;;5054923;28;20287;-41
2022/11/17 00:15:47;;;;;;;4.20;2.80;;;;;;;;;;5055107;28;20199;-41
2022/11/17 00:21:17;;;;;;;2.90;2.40;;;;;;;;;;5054864;28;20207;-41
2022/11/17 00:23:48;;;;;;;3.43;2.63;;;;;;;;;;5053778;28;20200;-41
2022/11/17 00:26:21;;;;;;;5.50;2.87;;;;;;;;;;5054369;28;20231;-42
2022/11/17 00:28:56;;;;;;;3.00;2.37;;;;;;;;;;5054864;28;20261;-41
2022/11/17 00:34:21;;;;;;;3.13;2.30;;;;;;;;;;5054842;28;20215;-41
2022/11/17 00:36:50;;;;;;;4.40;2.67;;;;;;;;;;5055638;28;20222;-41
2022/11/17 00:39:19;;;;;;;2.80;2.43;;;;;;;;;;5058592;28;20204;-41
2022/11/17 00:41:46;;;;;;;3.10;2.37;;;;;;;;;;5058409;28;20582;-42
2022/11/17 00:44:14;;;;;;;3.03;2.30;;;;;;;;;;5058412;28;20341;-42
2022/11/17 00:46:41;;;;;;;4.37;2.50;;;;;;;;;;5058395;28;20305;-41
2022/11/17 00:49:09;;;;;;;4.37;2.60;;;;;;;;;;5058098;28;20621;-41
2022/11/17 00:51:37;;;;;;;4.17;2.83;;;;;;;;;;5057934;28;20674;-41
2022/11/17 00:54:05;;;;;;;5.13;2.93;;;;;;;;;;5058098;28;20211;-41
2022/11/17 00:56:32;;;;;;;3.90;2.80;;;;;;;;;;5058193;28;20219;-41
2022/11/17 00:58:59;;;;;;;4.37;3.00;;;;;;;;;;5057867;28;20274;-42
2022/11/17 01:01:27;;;;;;;4.83;3.03;;;;;;;;;;5057789;28;20203;-41
2022/11/17 01:04:01;;;;;;;9.17;4.57;;;;;;;;;;5058425;28;20274;-41
2022/11/17 01:06:43;;;;;;;6.20;4.03;;;;;;;;;;5058193;28;20261;-41
2022/11/17 01:09:18;;;;;;;8.23;5.37;;;;;;;;;;5057571;28;20228;-42
2022/11/17 01:11:46;;;;;;;9.33;5.23;;;;;;;;;;5057635;28;20242;-41
2022/11/17 01:14:18;;;;;;;8.47;4.30;;;;;;;;;;5058224;28;20200;-41
2022/11/17 01:16:45;;;;;;;6.70;4.33;;;;;;;;;;5057720;28;20208;-42
2022/11/17 01:19:13;;;;;;;7.07;3.83;;;;;;;;;;5058040;28;20208;-41
2022/11/17 01:21:40;;;;;;;5.37;4.00;;;;;;;;;;5057730;28;20211;-42
2022/11/17 01:24:09;;;;;;;5.20;3.83;;;;;;;;;;5057710;28;20281;-41
2022/11/17 01:26:37;;;;;;;8.23;5.27;;;;;;;;;;5056488;28;20297;-41
2022/11/17 01:29:06;;;;;;;7.73;4.93;;;;;;;;;;5057457;28;20299;-42
2022/11/17 01:31:35;;;;;;;8.40;3.97;;;;;;;;;;5057939;28;20246;-41
2022/11/17 01:34:02;;;;;;;6.00;4.10;;;;;;;;;;5057401;28;20196;-41
2022/11/17 01:37:17;;;;;;;4.97;3.43;;;;;;;;;;5057755;28;20242;-41
2022/11/17 01:39:23;;;;;;;10.20;3.30;;;;;;;;;;5057292;28;20227;-41
2022/11/17 01:41:51;;;;;;;5.33;3.80;;;;;;;;;;5057258;28;20655;-41
2022/11/17 01:44:40;;;;;;;4.90;3.70;;;;;;;;;;5057240;28;20207;-41
2022/11/17 01:47:28;;;;;;;3.93;3.23;;;;;;;;;;5057876;28;20207;-41
2022/11/17 01:50:03;;;;;;;4.70;3.20;;;;;;;;;;5056946;28;20204;-41
2022/11/17 01:52:31;;;;;;;6.43;3.70;;;;;;;;;;5056210;28;20215;-41
2022/11/17 01:54:59;;;;;;;5.80;3.83;;;;;;;;;;5056029;28;20208;-42
2022/11/17 01:57:32;;;;;;;7.60;4.47;;;;;;;;;;5057072;28;20273;-41
2022/11/17 02:00:10;;;;;;;7.33;4.33;;;;;;;;;;5057082;28;20207;-41
2022/11/17 02:02:38;;;;;;;7.77;4.30;;;;;;;;;;5057304;28;20203;-41
2022/11/17 02:05:21;;;;;;;7.53;4.73;;;;;;;;;;5055822;28;20625;-41
2022/11/17 02:07:50;;;;;;;15.40;4.63;;;;;;;;;;5056645;28;20228;-41
2022/11/17 02:10:17;;;;;;;6.77;4.70;;;;;;;;;;5039319;28;20200;-41
2022/11/17 02:12:44;;;;;;;6.80;4.57;;;;;;;;;;5056715;28;20200;-42
2022/11/17 02:15:12;;;;;;;8.67;4.83;;;;;;;;;;5056818;28;20231;-41
2022/11/17 02:17:42;;;;;;;5.77;4.30;;;;;;;;;;5056441;28;20212;-41
2022/11/17 02:20:31;;;;;;;8.30;4.43;;;;;;;;;;5055468;28;20208;-41
2022/11/17 02:23:13;;;;;;;6.20;3.67;;;;;;;;;;5056653;28;20219;-41
2022/11/17 02:25:56;;;;;;;5.90;3.77;;;;;;;;;;5056733;28;20239;-41
2022/11/17 02:28:30;;;;;;;5.03;3.63;;;;;;;;;;5056376;28;20210;-43
2022/11/17 02:31:01;;;;;;;6.23;4.20;;;;;;;;;;5055886;28;20258;-41
2022/11/17 02:33:55;;;;;;;7.03;4.13;;;;;;;;;;5056669;28;20208;-42
2022/11/17 02:36:31;;;;;;;5.43;3.93;;;;;;;;;;5054919;28;20285;-41
2022/11/17 02:39:17;;;;;;;4.53;3.80;;;;;;;;;;5056086;28;20576;-42
2022/11/17 02:41:54;;;;;;;5.50;3.60;;;;;;;;;;5055152;28;20517;-41
2022/11/17 02:44:26;;;;;;;4.60;3.50;;;;;;;;;;5056144;28;20204;-41
2022/11/17 02:46:58;;;;;;;4.77;3.57;;;;;;;;;;5055436;28;20251;-41
2022/11/17 02:49:32;;;;;;;4.37;3.10;;;;;;;;;;5055628;28;20200;-41
2022/11/17 02:52:00;;;;;;;4.40;3.47;;;;;;;;;;5034753;28;20274;-40
2022/11/17 02:54:29;;;;;;;4.77;2.80;;;;;;;;;;5034292;28;20233;-41
2022/11/17 02:56:57;;;;;;;4.87;3.40;;;;;;;;;;5017884;28;20205;-41
2022/11/17 02:59:34;;;;;;;5.13;4.10;;;;;;;;;;5033606;28;20208;-41
2022/11/17 03:02:19;;;;;;;5.33;3.77;;;;;;;;;;5018045;28;20274;-41
2022/11/17 03:05:01;;;;;;;4.60;3.60;;;;;;;;;;5034182;28;20671;-42
2022/11/17 03:07:31;;;;;;;6.27;3.80;;;;;;;;;;5033971;28;20247;-41
2022/11/17 03:10:17;;;;;;;7.23;4.17;;;;;;;;;;5034051;28;20216;-40
2022/11/17 03:13:05;;;;;;;5.83;4.30;;;;;;;;;;5034110;28;20527;-41
2022/11/17 03:15:49;;;;;;;5.37;3.90;;;;;;;;;;5034398;28;20212;-41
2022/11/17 03:18:20;;;;;;;7.43;3.90;;;;;;;;;;5033932;28;20220;-42
2022/11/17 03:21:04;;;;;;;6.33;3.97;;;;;;;;;;5034257;28;20526;-41
2022/11/17 03:23:37;;;;;;;6.17;4.10;;;;;;;;;;5048469;28;20226;-43
2022/11/17 03:26:07;;;;;;;6.23;3.87;;;;;;;;;;5055691;28;20208;-42
2022/11/17 03:28:35;;;;;;;5.80;4.03;;;;;;;;;;5054857;28;20257;-41
2022/11/17 03:31:03;;;;;;;4.40;3.40;;;;;;;;;;5053677;28;20200;-41
2022/11/17 03:33:31;;;;;;;5.23;3.60;;;;;;;;;;5054741;28;20525;-41
2022/11/17 03:36:06;;;;;;;4.87;3.40;;;;;;;;;;5055249;28;20208;-41
2022/11/17 03:38:37;;;;;;;6.70;3.90;;;;;;;;;;5054746;28;20199;-41
2022/11/17 03:41:06;;;;;;;4.53;3.57;;;;;;;;;;5055007;28;20274;-42
2022/11/17 03:43:33;;;;;;;5.40;3.10;;;;;;;;;;5055034;28;20196;-41
2022/11/17 03:46:05;;;;;;;4.93;3.47;;;;;;;;;;5054093;28;20281;-41
2022/11/17 03:49:02;;;;;;;4.47;3.40;;;;;;;;;;5054056;28;20203;-42
2022/11/17 03:51:31;;;;;;;6.43;3.83;;;;;;;;;;5052609;28;20309;-41
2022/11/17 03:53:59;;;;;;;4.37;3.67;;;;;;;;;;5054092;28;20549;-41
2022/11/17 03:56:47;;;;;;;4.97;3.17;;;;;;;;;;5055024;28;20208;-41
2022/11/17 03:59:20;;;;;;;5.63;3.40;;;;;;;;;;5055185;28;20200;-42
2022/11/17 04:01:47;;;;;;;4.63;3.27;;;;;;;;;;5054980;28;20518;-42
2022/11/17 04:04:19;;;;;;;5.30;3.27;;;;;;;;;;5054563;28;20629;-42
2022/11/17 04:06:47;;;;;;;5.87;3.33;;;;;;;;;;5055013;28;20304;-42
2022/11/17 04:09:14;;;;;;;5.00;3.30;;;;;;;;;;5055094;28;20273;-41
2022/11/17 04:17:20;;;;;;;4.53;2.93;;;;;;;;;;5059502;28;20211;-41
2022/11/17 04:19:47;;;;;;;3.63;2.67;;;;;;;;;;5058744;28;20206;-41
2022/11/17 04:22:14;;;;;;;5.20;2.93;;;;;;;;;;5058720;28;20270;-42
2022/11/17 04:24:41;;;;;;;4.50;2.60;;;;;;;;;;5058838;28;20533;-41
2022/11/17 04:29:54;;;;;;;2.83;2.57;;;;;;;;;;5058798;28;20200;-41
2022/11/17 04:32:20;;;;;;;3.63;2.70;;;;;;;;;;5057089;28;20220;-41
2022/11/17 04:34:48;;;;;;;4.37;2.70;;;;;;;;;;5058200;28;20196;-42
2022/11/17 04:37:17;;;;;;;3.00;2.70;;;;;;;;;;5057793;28;20200;-41
2022/11/17 04:39:44;;;;;;;2.90;2.27;;;;;;;;;;5058009;28;20205;-41
2022/11/17 04:42:11;;;;;;;2.57;2.27;;;;;;;;;;5058213;28;20218;-41
2022/11/17 04:44:39;;;;;;;3.47;2.43;;;;;;;;;;5058174;28;20207;-41
2022/11/17 04:47:06;;;;;;;3.80;2.40;;;;;;;;;;5057569;28;20661;-42
2022/11/17 04:49:33;;;;;;;3.33;2.57;;;;;;;;;;5056756;28;20632;-43
2022/11/17 04:52:00;;;;;;;3.87;2.20;;;;;;;;;;5052707;28;20196;-47
2022/11/17 04:54:28;;;;;;;3.13;2.30;;;;;;;;;;5057442;28;20211;-42
2022/11/17 04:56:56;;;;;;;4.93;3.00;;;;;;;;;;5057411;28;20254;-42
2022/11/17 04:59:23;;;;;;;2.93;2.30;;;;;;;;;;5055663;28;20216;-46
2022/11/17 05:01:50;;;;;;;3.27;2.33;;;;;;;;;;5056887;28;20204;-41
2022/11/17 05:07:04;;;;;;;3.57;2.13;;;;;;;;;;5049812;28;20255;-41
2022/11/17 05:09:32;;;;;;;2.43;1.93;;;;;;;;;;5056893;28;20305;-42
2022/11/17 05:14:46;;;;;;;2.07;1.80;;;;;;;;;;5045382;28;20231;-44
2022/11/17 05:17:13;;;;;;;2.17;1.73;;;;;;;;;;5043828;28;20223;-42
2022/11/17 05:19:45;;;;;;;2.67;2.10;;;;;;;;;;5044132;28;20225;-41
2022/11/17 05:25:16;;;;;;;2.40;2.10;;;;;;;;;;5036579;28;20228;-42
2022/11/17 05:27:43;;;;;;;2.97;2.10;;;;;;;;;;5036368;28;20259;-42
2022/11/17 05:30:10;;;;;;;4.50;2.60;;;;;;;;;;5036809;28;20233;-43
2022/11/17 05:32:37;;;;;;;4.60;2.20;;;;;;;;;;5036487;28;20267;-42
2022/11/17 05:35:05;;;;;;;3.60;2.63;;;;;;;;;;5035598;28;20278;-42
2022/11/17 05:37:32;;;;;;;5.93;3.27;;;;;;;;;;5036278;28;20225;-46
2022/11/17 05:39:59;;;;;;;4.67;3.10;;;;;;;;;;5035915;28;20528;-41
2022/11/17 05:42:26;;;;;;;4.40;3.30;;;;;;;;;;5035616;28;20228;-45
2022/11/17 05:44:53;;;;;;;6.07;3.57;;;;;;;;;;5034409;28;20217;-41
2022/11/17 05:47:20;;;;;;;3.27;2.97;;;;;;;;;;5034011;28;20240;-47
2022/11/17 05:49:47;;;;;;;4.70;3.30;;;;;;;;;;5034074;28;20224;-48
2022/11/17 05:52:14;;;;;;;6.33;3.57;;;;;;;;;;5053131;28;20254;-47
2022/11/17 05:54:41;;;;;;;5.07;3.40;;;;;;;;;;5054273;28;20225;-47
2022/11/17 05:57:12;;;;;;;3.43;2.93;;;;;;;;;;5049145;28;20243;-41
2022/11/17 05:59:46;;;;;;;4.93;2.80;;;;;;;;;;5055138;28;20235;-40
2022/11/17 06:02:27;;;;;;;3.93;2.63;;;;;;;;;;5055086;28;20282;-40
2022/11/17 06:04:54;;;;;;;4.40;3.17;;;;;;;;;;5054727;28;20236;-40
2022/11/17 06:07:21;;;;;;;5.27;3.13;;;;;;;;;;5054898;28;20248;-40
2022/11/17 06:09:49;;;;;;;4.23;2.97;;;;;;;;;;5055135;28;20711;-40
2022/11/17 06:12:17;;;;;;;4.10;3.00;;;;;;;;;;5055573;28;20227;-40
2022/11/17 06:14:43;;;;;;;4.00;3.00;;;;;;;;;;5055805;28;20238;-43
2022/11/17 06:17:21;;;;;;;6.00;3.47;;;;;;;;;;5056326;28;20204;-39
2022/11/17 06:20:02;;;;;;;3.57;3.03;;;;;;;;;;5055358;28;20192;-40
2022/11/17 06:22:30;;;;;;;4.40;3.10;;;;;;;;;;5072367;28;20211;-43
2022/11/17 06:24:57;;;;;;;4.63;3.30;;;;;;;;;;5056401;28;20204;-41
2022/11/17 06:27:24;;;;;;;4.73;3.40;;;;;;;;;;5055195;28;20586;-41
2022/11/17 06:29:52;;;;;;;4.80;3.37;;;;;;;;;;5056062;28;20200;-44
2022/11/17 06:32:20;;;;;;;4.17;3.20;;;;;;;;;;5056344;28;20200;-40
2022/11/17 06:34:48;;;;;;;6.43;3.60;;;;;;;;;;5055382;28;20572;-42
2022/11/17 06:37:23;;;;;;;4.43;3.50;;;;;;;;;;5056515;28;20188;-40
2022/11/17 06:39:50;;;;;;;4.77;3.37;;;;;;;;;;5056071;28;20604;-44
2022/11/17 06:42:18;;;;;;;4.23;3.30;;;;;;;;;;5056359;28;20218;-41
2022/11/17 06:44:45;;;;;;;4.03;3.30;;;;;;;;;;5056003;28;20204;-41
2022/11/17 06:47:12;;;;;;;4.43;3.30;;;;;;;;;;5056031;28;20224;-41
2022/11/17 06:49:39;;;;;;;4.50;3.23;;;;;;;;;;5056169;28;20203;-41
2022/11/17 06:52:06;;;;;;;7.97;3.93;;;;;;;;;;5056314;28;20273;-40
2022/11/17 06:54:33;;;;;;;4.23;3.40;;;;;;;;;;5055856;28;20199;-41
2022/11/17 06:57:00;;;;;;;4.70;3.20;;;;;;;;;;5054820;28;20208;-41
2022/11/17 06:59:28;;;;;;;6.00;3.50;;;;;;;;;;5055724;28;20232;-41
2022/11/17 07:01:55;;;;;;;5.30;3.80;;;;;;;;;;5056193;28;20262;-41
2022/11/17 07:04:22;;;;;;;6.43;3.53;;;;;;;;;;5055527;28;20633;-41
2022/11/17 07:06:49;;;;;;;5.53;3.90;;;;;;;;;;5055628;28;20238;-41
2022/11/17 07:09:16;;;;;;;4.70;3.37;;;;;;;;;;5055617;28;20319;-41
2022/11/17 07:11:44;;;;;;;7.53;3.37;;;;;;;;;;5055593;28;20211;-41
2022/11/17 07:14:11;;;;;;;5.00;3.80;;;;;;;;;;5055303;28;20622;-41
2022/11/17 07:16:40;;;;;;;6.00;3.80;;;;;;;;;;5055306;28;20702;-41
2022/11/17 07:19:08;;;;;;;5.00;3.67;;;;;;;;;;5055347;28;20286;-42
2022/11/17 07:21:35;;;;;;;6.00;4.17;;;;;;;;;;5055338;28;20269;-42
2022/11/17 07:24:03;;;;;;;7.97;5.20;;;;;;;;;;5055455;28;20215;-41
2022/11/17 07:26:31;;;;;;;9.10;6.13;;;;;;;;;;5055463;28;20603;-42
2022/11/17 07:28:58;;;;;;;6.90;5.43;;;;;;;;;;5055539;28;20307;-41
2022/11/17 07:31:25;;;;;;;8.47;5.43;;;;;;;;;;5055876;28;20204;-41
2022/11/17 07:33:53;;;;;;;7.30;5.60;;;;;;;;;;5055089;28;20239;-41
2022/11/17 07:36:20;;;;;;;8.40;5.60;;;;;;;;;;5054979;28;20262;-41
2022/11/17 07:38:47;;;;;;;7.37;5.30;;;;;;;;;;5055181;28;20200;-41
2022/11/17 07:41:14;;;;;;;6.57;5.70;;;;;;;;;;5055020;28;20341;-41
2022/11/17 07:43:41;;;;;;;11.03;6.20;;;;;;;;;;5054866;28;20629;-41
2022/11/17 07:46:13;;;;;;;8.70;5.97;;;;;;;;;;5055373;28;20239;-41
2022/11/17 07:48:42;;;;;;;8.27;6.20;;;;;;;;;;5055404;28;20200;-41
2022/11/17 07:51:09;;;;;;;7.87;6.27;;;;;;;;;;5055133;28;20266;-41
2022/11/17 07:53:36;;;;;;;11.83;6.77;;;;;;;;;;5054718;28;20204;-42
2022/11/17 07:56:05;;;;;;;8.07;5.93;;;;;;;;;;5054779;28;20200;-41
2022/11/17 07:58:32;;;;;;;10.27;7.20;;;;;;;;;;5054931;28;20200;-41
2022/11/17 08:01:13;;;;;;;10.73;6.97;;;;;;;;;;5054993;28;20215;-40
2022/11/17 08:03:41;;;;;;;10.67;6.73;;;;;;;;;;5054994;28;20230;-41
2022/11/17 08:06:09;;;;;;;8.93;6.73;;;;;;;;;;5054886;28;20722;-41
2022/11/17 08:08:36;;;;;;;11.77;6.60;;;;;;;;;;5054491;28;20235;-41
2022/11/17 08:11:06;;;;;;;10.20;7.00;;;;;;;;;;5054609;28;20245;-41
2022/11/17 08:13:34;;;;;;;7.97;6.40;;;;;;;;;;5055045;28;20582;-43
2022/11/17 08:16:01;;;;;;;9.83;6.57;;;;;;;;;;5054837;28;20200;-40
2022/11/17 08:18:29;;;;;;;8.83;6.23;;;;;;;;;;5054758;28;20552;-41
2022/11/17 08:21:15;;;;;;;10.97;6.50;;;;;;;;;;5054746;28;20204;-41
2022/11/17 08:23:42;;;;;;;8.50;6.03;;;;;;;;;;5054837;28;20214;-41
2022/11/17 08:26:10;;;;;;;8.10;5.80;;;;;;;;;;5054443;28;20212;-40
2022/11/17 08:28:37;;;;;;;11.07;5.70;;;;;;;;;;5054622;28;20239;-41
2022/11/17 08:31:06;;;;;;;9.27;6.00;;;;;;;;;;5054700;28;20277;-41
2022/11/17 08:33:33;;;;;;;8.90;6.30;;;;;;;;;;5054392;28;20215;-42
2022/11/17 08:36:01;;;;;;;8.43;6.40;;;;;;;;;;5054627;28;20203;-41
2022/11/17 08:38:28;;;;;;;9.40;6.43;;;;;;;;;;5054406;28;20680;-41
2022/11/17 08:41:01;;;;;;;10.57;6.10;;;;;;;;;;5054289;28;20564;-44
2022/11/17 08:43:28;;;;;;;10.13;6.43;;;;;;;;;;5054509;28;20215;-41
2022/11/17 08:45:56;;;;;;;10.27;6.13;;;;;;;;;;5054568;28;20208;-41
2022/11/17 08:48:23;;;;;;;8.50;5.70;;;;;;;;;;5054955;28;20252;-41
2022/11/17 08:50:51;;;;;;;10.57;6.27;;;;;;;;;;5054378;28;20196;-41
2022/11/17 08:53:20;;;;;;;9.50;7.07;;;;;;;;;;5054284;28;20230;-41
2022/11/17 08:55:48;;;;;;;10.73;6.87;;;;;;;;;;5054417;28;20212;-41
2022/11/17 08:58:15;;;;;;;9.47;6.47;;;;;;;;;;5056309;28;20208;-41
2022/11/17 09:00:44;;;;;;;10.20;6.87;;;;;;;;;;5058189;28;20234;-41
2022/11/17 09:03:11;;;;;;;9.90;6.73;;;;;;;;;;5058104;28;20204;-41
2022/11/17 09:05:39;;;;;;;13.40;8.27;;;;;;;;;;5058132;28;20208;-41
2022/11/17 09:08:07;;;;;;;9.03;6.70;;;;;;;;;;5056752;28;20691;-42
2022/11/17 09:10:54;;;;;;;8.17;6.20;;;;;;;;;;5058556;28;20200;-40
2022/11/17 09:13:21;;;;;;;7.97;6.20;;;;;;;;;;5057959;28;20291;-41
2022/11/17 09:15:49;;;;;;;9.80;6.27;;;;;;;;;;5057708;28;20200;-41
2022/11/17 09:18:15;;;;;;;8.97;6.70;;;;;;;;;;5057851;28;20219;-41
2022/11/17 09:20:43;;;;;;;10.33;6.37;;;;;;;;;;5057541;28;20621;-42
2022/11/17 09:23:12;;;;;;;12.47;7.27;;;;;;;;;;5057419;28;20201;-41
2022/11/17 09:25:39;;;;;;;12.83;8.13;;;;;;;;;;5057411;28;20204;-41
2022/11/17 09:28:06;;;;;;;13.57;7.47;;;;;;;;;;5057344;28;20227;-41
2022/11/17 09:30:33;;;;;;;13.93;9.23;;;;;;;;;;5057426;28;20663;-41
2022/11/17 09:33:00;;;;;;;19.50;8.60;;;;;;;;;;5057654;28;20204;-41
2022/11/17 09:35:27;;;;;;;14.27;8.13;;;;;;;;;;5057232;28;20203;-41
2022/11/17 09:37:59;;;;;;;17.90;7.20;;;;;;;;;;5057445;28;20195;-41
2022/11/17 09:40:26;;;;;;;9.07;6.37;;;;;;;;;;5057186;28;20192;-42
2022/11/17 09:42:59;;;;;;;11.73;7.00;;;;;;;;;;5057589;28;20239;-41
2022/11/17 09:45:29;;;;;;;16.20;9.00;;;;;;;;;;5057204;28;20196;-42
2022/11/17 09:48:05;;;;;;;13.43;8.33;;;;;;;;;;5056220;28;20273;-41
2022/11/17 09:50:54;;;;;;;10.20;7.17;;;;;;;;;;5057214;28;20262;-41
2022/11/17 09:53:49;;;;;;;12.07;7.07;;;;;;;;;;5057173;28;20208;-41
2022/11/17 09:56:16;;;;;;;16.90;8.77;;;;;;;;;;5057211;28;20537;-42
2022/11/17 09:58:48;;;;;;;15.13;8.73;;;;;;;;;;5056899;28;20204;-41
2022/11/17 10:01:18;;;;;;;8.87;6.20;;;;;;;;;;5057258;28;20536;-42
2022/11/17 10:03:46;;;;;;;12.07;7.00;;;;;;;;;;5056118;28;20211;-40
2022/11/17 10:06:23;;;;;;;15.23;7.57;;;;;;;;;;5055833;28;20204;-41
2022/11/17 10:09:24;;;;;;;9.63;5.97;;;;;;;;;;5054916;28;20575;-41
2022/11/17 10:11:53;;;;;;;15.27;7.63;;;;;;;;;;5056788;28;20195;-41
2022/11/17 10:14:26;;;;;;;6.77;5.10;;;;;;;;;;5055858;28;20196;-43
2022/11/17 10:16:55;;;;;;;6.73;5.30;;;;;;;;;;5056035;28;20215;-40
2022/11/17 10:19:30;;;;;;;8.33;5.07;;;;;;;;;;5056567;28;20234;-41
2022/11/17 10:22:01;;;;;;;7.03;5.07;;;;;;;;;;5056686;28;20214;-41
2022/11/17 10:24:57;;;;;;;7.47;5.30;;;;;;;;;;5056636;28;20290;-42
2022/11/17 10:27:32;;;;;;;10.57;4.57;;;;;;;;;;5054579;28;20228;-41
2022/11/17 10:30:13;;;;;;;13.87;7.90;;;;;;;;;;5056265;28;20272;-41
2022/11/17 10:32:53;;;;;;;8.40;4.90;;;;;;;;;;5056474;28;20192;-41
2022/11/17 10:35:23;;;;;;;7.93;4.40;;;;;;;;;;5056562;28;20199;-42
2022/11/17 10:38:01;;;;;;;7.50;5.03;;;;;;;;;;5056078;28;20204;-41
2022/11/17 10:40:29;;;;;;;5.27;4.33;;;;;;;;;;5055633;28;20188;-41
2022/11/17 10:43:02;;;;;;;6.70;5.03;;;;;;;;;;5055936;28;20219;-41
2022/11/17 10:45:29;;;;;;;12.60;7.57;;;;;;;;;;5034650;28;20576;-41
2022/11/17 10:48:21;;;;;;;11.30;6.70;;;;;;;;;;5034728;28;20224;-41
2022/11/17 10:50:58;;;;;;;11.07;6.13;;;;;;;;;;5034356;28;20236;-42
2022/11/17 10:53:25;;;;;;;12.97;6.53;;;;;;;;;;5034681;28;20193;-41
2022/11/17 10:55:59;;;;;;;7.23;5.10;;;;;;;;;;5034328;28;20235;-41
2022/11/17 10:58:28;;;;;;;9.27;5.73;;;;;;;;;;5018284;28;20209;-41
2022/11/17 11:00:57;;;;;;;7.57;5.13;;;;;;;;;;5034218;28;20648;-41
2022/11/17 11:03:32;;;;;;;8.37;4.80;;;;;;;;;;5017905;28;20262;-41
2022/11/17 11:06:22;;;;;;;6.13;4.93;;;;;;;;;;5034283;28;20216;-42
2022/11/17 11:08:57;;;;;;;6.57;4.90;;;;;;;;;;5033875;28;20296;-41
2022/11/17 11:11:41;;;;;;;5.70;4.37;;;;;;;;;;5034192;28;20200;-41
2022/11/17 11:14:24;;;;;;;7.53;4.23;;;;;;;;;;5034128;28;20212;-41
2022/11/17 11:16:53;;;;;;;6.03;4.43;;;;;;;;;;5040124;28;20208;-42
2022/11/17 11:19:20;;;;;;;6.77;4.07;;;;;;;;;;5055270;28;20501;-41
2022/11/17 11:22:14;;;;;;;5.93;4.90;;;;;;;;;;5055035;28;20655;-42
2022/11/17 11:24:57;;;;;;;5.77;4.53;;;;;;;;;;5054465;28;20617;-42
2022/11/17 11:27:48;;;;;;;7.63;4.93;;;;;;;;;;5054564;28;20212;-41
2022/11/17 11:30:16;;;;;;;7.27;4.27;;;;;;;;;;5033540;28;20707;-41
2022/11/17 11:33:13;;;;;;;32.13;13.37;;;;;;;;;;5017437;28;20209;-41
2022/11/17 11:36:02;;;;;;;6.40;4.53;;;;;;;;;;5033513;28;20207;-42
2022/11/17 11:38:35;;;;;;;6.17;4.73;;;;;;;;;;5033520;28;20219;-42
2022/11/17 11:41:21;;;;;;;6.60;4.70;;;;;;;;;;5033859;28;20205;-41
2022/11/17 11:44:07;;;;;;;9.67;5.50;;;;;;;;;;5033563;28;20193;-41
2022/11/17 11:46:51;;;;;;;6.70;4.90;;;;;;;;;;5033789;28;20219;-41
2022/11/17 11:49:41;;;;;;;8.97;5.53;;;;;;;;;;5017327;28;20228;-42
2022/11/17 11:52:13;;;;;;;6.77;4.73;;;;;;;;;;5033745;28;20282;-41
2022/11/17 11:54:55;;;;;;;9.50;6.17;;;;;;;;;;5017000;28;20205;-41
2022/11/17 11:57:36;;;;;;;8.53;6.03;;;;;;;;;;5017015;28;20286;-41
2022/11/17 12:00:05;;;;;;;5.43;4.13;;;;;;;;;;5017144;28;20205;-41
2022/11/17 12:02:40;;;;;;;7.23;4.97;;;;;;;;;;5033293;28;20244;-41
2022/11/17 12:05:23;;;;;;;7.60;4.87;;;;;;;;;;5033231;28;20208;-41
2022/11/17 12:08:16;;;;;;;6.57;4.97;;;;;;;;;;5042055;28;20243;-41
2022/11/17 12:13:55;;;;;;;6.10;4.57;;;;;;;;;;5054052;28;20208;-41
2022/11/17 12:16:27;;;;;;;5.40;4.23;;;;;;;;;;5053991;28;20204;-42
2022/11/17 12:18:54;;;;;;;6.80;4.63;;;;;;;;;;5053160;28;20207;-41
2022/11/17 12:21:25;;;;;;;8.07;5.20;;;;;;;;;;5048135;28;20227;-45
2022/11/17 12:24:17;;;;;;;5.80;4.30;;;;;;;;;;5053152;28;20262;-41
2022/11/17 12:26:44;;;;;;;9.27;4.90;;;;;;;;;;5060723;28;20309;-41
2022/11/17 12:29:20;;;;;;;12.03;5.30;;;;;;;;;;5052550;28;20232;-41
2022/11/17 12:31:48;;;;;;;9.23;5.67;;;;;;;;;;5053249;28;20223;-41
2022/11/17 12:34:19;;;;;;;7.17;4.87;;;;;;;;;;5057051;28;20227;-41
2022/11/17 12:37:12;;;;;;;7.40;5.00;;;;;;;;;;5037612;28;20224;-41
2022/11/17 12:40:07;;;;;;;6.00;4.23;;;;;;;;;;5037431;28;20669;-43
2022/11/17 12:42:35;;;;;;;8.50;5.10;;;;;;;;;;5037584;28;20228;-41
2022/11/17 12:45:10;;;;;;;8.03;5.37;;;;;;;;;;5037460;28;20232;-43
2022/11/17 12:47:45;;;;;;;7.27;4.83;;;;;;;;;;5036740;28;20220;-40
2022/11/17 12:50:44;;;;;;;7.93;5.57;;;;;;;;;;5036707;28;20221;-41
2022/11/17 12:53:18;;;;;;;7.40;5.00;;;;;;;;;;5043615;28;20224;-41
2022/11/17 12:55:58;;;;;;;8.47;5.60;;;;;;;;;;5056607;28;20550;-42
2022/11/17 12:59:02;;;;;;;8.13;5.80;;;;;;;;;;5057199;28;20270;-47
2022/11/17 13:01:57;;;;;;;8.50;5.27;;;;;;;;;;5053458;28;20227;-41
2022/11/17 13:04:41;;;;;;;9.43;5.53;;;;;;;;;;5055686;28;20224;-43
2022/11/17 13:07:19;;;;;;;7.00;5.00;;;;;;;;;;5055920;28;20251;-43
2022/11/17 13:09:56;;;;;;;8.13;4.67;;;;;;;;;;5053336;28;20224;-41
2022/11/17 13:12:30;;;;;;;9.20;5.40;;;;;;;;;;5057001;28;20656;-41
2022/11/17 13:14:58;;;;;;;8.97;5.27;;;;;;;;;;5058118;28;20192;-41
2022/11/17 13:17:31;;;;;;;8.10;5.33;;;;;;;;;;5057462;28;20287;-41
2022/11/17 13:20:01;;;;;;;8.07;5.87;;;;;;;;;;5058040;28;20258;-41
2022/11/17 13:22:28;;;;;;;7.97;6.00;;;;;;;;;;5057627;28;20200;-44
2022/11/17 13:24:56;;;;;;;8.87;5.30;;;;;;;;;;5057211;28;20625;-42
2022/11/17 13:27:28;;;;;;;6.80;4.83;;;;;;;;;;5057696;28;20237;-42
2022/11/17 13:30:14;;;;;;;9.60;5.80;;;;;;;;;;5057263;28;20220;-41
2022/11/17 13:32:42;;;;;;;10.30;5.40;;;;;;;;;;5054544;28;20196;-42
2022/11/17 13:35:27;;;;;;;7.80;4.90;;;;;;;;;;5056545;28;20227;-41
2022/11/17 13:38:13;;;;;;;7.10;5.10;;;;;;;;;;5037312;28;20208;-42
2022/11/17 13:40:41;;;;;;;7.47;5.23;;;;;;;;;;5040089;28;20613;-41
2022/11/17 13:43:15;;;;;;;8.67;5.37;;;;;;;;;;5056853;28;20204;-41
2022/11/17 13:45:44;;;;;;;7.57;5.20;;;;;;;;;;5057205;28;20191;-41
2022/11/17 13:48:31;;;;;;;11.33;5.17;;;;;;;;;;5057161;28;20277;-41
2022/11/17 13:51:16;;;;;;;7.93;5.37;;;;;;;;;;5057035;28;20200;-41
2022/11/17 13:53:45;;;;;;;7.67;5.53;;;;;;;;;;5057153;28;20192;-48
2022/11/17 13:56:25;;;;;;;12.70;6.70;;;;;;;;;;5047327;28;20200;-42
2022/11/17 13:58:52;;;;;;;14.00;7.10;;;;;;;;;;5047890;28;20238;-43
2022/11/17 14:01:22;;;;;;;14.57;6.97;;;;;;;;;;5055005;28;20219;-43
2022/11/17 14:03:50;;;;;;;51.47;26.37;;;;;;;;;;5048238;28;20221;-43
2022/11/17 14:06:18;;;;;;;9.43;6.23;;;;;;;;;;5046353;28;20216;-45
2022/11/17 14:09:01;;;;;;;8.80;4.93;;;;;;;;;;5055127;28;20579;-46
2022/11/17 14:11:29;;;;;;;7.70;5.40;;;;;;;;;;5054795;28;20216;-40
2022/11/17 14:13:57;;;;;;;10.90;6.27;;;;;;;;;;5055964;28;20250;-50
2022/11/17 14:16:42;;;;;;;8.13;5.37;;;;;;;;;;5055683;28;20530;-42
2022/11/17 14:19:14;;;;;;;8.43;5.20;;;;;;;;;;5054520;28;20224;-43
2022/11/17 14:22:07;;;;;;;11.93;6.40;;;;;;;;;;5055425;28;20507;-44
2022/11/17 14:24:34;;;;;;;8.37;5.13;;;;;;;;;;5055445;28;20285;-43
2022/11/17 14:27:10;;;;;;;7.87;5.20;;;;;;;;;;5054429;28;20232;-45
2022/11/17 14:29:37;;;;;;;7.80;5.07;;;;;;;;;;5053864;28;20262;-44
2022/11/17 14:32:04;;;;;;;6.03;4.70;;;;;;;;;;5052348;28;20289;-44
2022/11/17 14:34:31;;;;;;;7.60;4.23;;;;;;;;;;5054263;28;20220;-44
2022/11/17 14:36:59;;;;;;;6.37;4.17;;;;;;;;;;5053611;28;20243;-46
2022/11/17 14:39:26;;;;;;;8.47;5.07;;;;;;;;;;5054301;28;20291;-47
2022/11/17 14:41:53;;;;;;;7.97;4.73;;;;;;;;;;5053397;28;20220;-45
2022/11/17 14:44:22;;;;;;;7.93;5.30;;;;;;;;;;5054685;28;20711;-42
2022/11/17 14:46:49;;;;;;;7.17;5.33;;;;;;;;;;5055216;28;20591;-42
2022/11/17 14:49:16;;;;;;;9.77;5.03;;;;;;;;;;5054692;28;20326;-43
2022/11/17 14:51:48;;;;;;;10.33;6.50;;;;;;;;;;5054793;28;20274;-47
2022/11/17 14:54:15;;;;;;;12.47;6.23;;;;;;;;;;5052962;28;20312;-45
2022/11/17 14:56:42;;;;;;;8.10;5.37;;;;;;;;;;5050897;28;20306;-44
2022/11/17 14:59:10;;;;;;;7.70;5.50;;;;;;;;;;5053210;28;20714;-42
2022/11/17 15:01:37;;;;;;;7.63;4.83;;;;;;;;;;5052526;28;20227;-58
2022/11/17 15:04:05;;;;;;;7.43;5.10;;;;;;;;;;5051120;28;20285;-45
2022/11/17 15:06:52;;;;;;;8.83;5.50;;;;;;;;;;5038517;28;20232;-49
2022/11/17 15:09:19;;;;;;;11.63;6.23;;;;;;;;;;5051840;28;20240;-44
2022/11/17 15:11:47;;;;;;;12.97;7.13;;;;;;;;;;5053325;28;20227;-47
2022/11/17 15:14:13;;;;;;;8.97;6.03;;;;;;;;;;5053563;28;20227;-44
2022/11/17 15:16:41;;;;;;;10.80;5.70;;;;;;;;;;5054261;28;20227;-45
2022/11/17 15:19:08;;;;;;;10.47;5.87;;;;;;;;;;5053984;28;20224;-45
2022/11/17 15:21:35;;;;;;;10.83;6.87;;;;;;;;;;5054705;28;20232;-45
2022/11/17 15:24:03;;;;;;;8.57;5.70;;;;;;;;;;5054051;28;20767;-46
2022/11/17 15:26:30;;;;;;;11.83;6.63;;;;;;;;;;5053800;28;20235;-47
2022/11/17 15:28:57;;;;;;;9.40;5.80;;;;;;;;;;5053775;28;20236;-50
2022/11/17 15:31:24;;;;;;;7.80;5.03;;;;;;;;;;5054469;28;20533;-48
2022/11/17 15:33:51;;;;;;;10.13;6.10;;;;;;;;;;5053941;28;20263;-48
2022/11/17 15:36:19;;;;;;;7.30;4.80;;;;;;;;;;5050624;28;20215;-48
2022/11/17 15:38:46;;;;;;;12.17;5.80;;;;;;;;;;5051869;28;20220;-46